Aviation Digital Data Service (ADDS)

Output produced by METARs form (2134 UTC 06 May 2015)
found at http://aviationweather.gov/adds/metars/
 
KRDU 061735Z 0618/0718 12005KT P6SM SCT050 SCT250 
     FM071400 06008KT P6SM BKN250